New Chicago, Indiana
Current Conditions -  °F | °C
As of 7:45 AM on Saturday 25 Oct 2014 (Local Time) from KGYY Reporting Station
Haze Haze  
Wind Chill: 57°   Ceiling: 700
Heat Index: 57°   Visibility: 4mi
Dew Point: 54°   Wind: 6mph
Humidity: 88%   Direction: 260°W
Pressure: 29.93"   Gusts: NA
Location:  41.5196°N, 87.2427°W
Report Text: KGYY 251245Z 26005KT 4SM BR BKN007 14/12 A2993
Loading
Personal Weather Stations






























Interactive Weather Map
Tropical Storm Tracking
New forecast layout! Learn more

10-Day Weather Forecast

Advertisements
Track Severe Weather on mobile